sensor_id;sensor_type;location;lat;lon;timestamp;P1;durP1;ratioP1;P2;durP2;ratioP2
54557;SDS011;40452;50.080;20.040;2022-11-15T04:52:16;10.45;;;6.55;;
54557;SDS011;40452;50.080;20.040;2022-11-15T04:54:42;9.43;;;6.25;;
54557;SDS011;40452;50.080;20.040;2022-11-15T04:57:08;10.07;;;6.65;;
54557;SDS011;40452;50.080;20.040;2022-11-15T04:59:33;9.52;;;6.60;;
54557;SDS011;40452;50.080;20.040;2022-11-15T05:01:59;8.90;;;6.03;;
54557;SDS011;40452;50.080;20.040;2022-11-15T05:04:24;8.93;;;5.90;;
54557;SDS011;40452;50.080;20.040;2022-11-15T05:06:50;9.07;;;6.18;;
54557;SDS011;40452;50.080;20.040;2022-11-15T05:09:20;8.40;;;6.32;;
54557;SDS011;40452;50.080;20.040;2022-11-15T05:11:45;9.82;;;6.70;;
54557;SDS011;40452;50.080;20.040;2022-11-15T05:14:12;8.85;;;6.38;;
54557;SDS011;40452;50.080;20.040;2022-11-15T05:16:38;11.32;;;6.72;;
54557;SDS011;40452;50.080;20.040;2022-11-15T05:19:04;10.65;;;7.32;;
54557;SDS011;40452;50.080;20.040;2022-11-15T05:21:30;12.23;;;7.55;;
54557;SDS011;40452;50.080;20.040;2022-11-15T05:23:55;12.73;;;8.05;;
54557;SDS011;40452;50.080;20.040;2022-11-15T05:26:21;12.75;;;7.80;;
54557;SDS011;40452;50.080;20.040;2022-11-15T05:28:51;12.60;;;7.97;;
54557;SDS011;40452;50.080;20.040;2022-11-15T05:31:19;13.45;;;7.82;;
54557;SDS011;40452;50.080;20.040;2022-11-15T05:33:44;16.17;;;8.15;;
54557;SDS011;40452;50.080;20.040;2022-11-15T05:38:56;17.45;;;9.32;;
54557;SDS011;40452;50.080;20.040;2022-11-15T05:41:23;14.80;;;8.45;;
54557;SDS011;40452;50.080;20.040;2022-11-15T05:44:00;15.90;;;7.90;;
54557;SDS011;40452;50.080;20.040;2022-11-15T05:46:27;14.88;;;8.13;;
54557;SDS011;40452;50.080;20.040;2022-11-15T05:48:54;11.90;;;7.82;;
54557;SDS011;40452;50.080;20.040;2022-11-15T05:51:21;13.20;;;7.75;;
54557;SDS011;40452;50.080;20.040;2022-11-15T05:53:48;12.52;;;7.93;;
54557;SDS011;40452;50.080;20.040;2022-11-15T05:56:14;13.68;;;7.75;;
54557;SDS011;40452;50.080;20.040;2022-11-15T05:58:40;16.17;;;8.38;;
54557;SDS011;40452;50.080;20.040;2022-11-15T06:01:07;11.52;;;7.13;;
54557;SDS011;40452;50.080;20.040;2022-11-15T06:03:32;13.50;;;7.80;;
54557;SDS011;40452;50.080;20.040;2022-11-15T06:05:58;14.98;;;8.23;;
54557;SDS011;40452;50.080;20.040;2022-11-15T06:08:23;13.48;;;8.07;;
54557;SDS011;40452;50.080;20.040;2022-11-15T06:10:49;15.90;;;8.40;;
54557;SDS011;40452;50.080;20.040;2022-11-15T06:13:15;14.60;;;8.23;;
54557;SDS011;40452;50.080;20.040;2022-11-15T06:15:40;13.77;;;8.05;;
54557;SDS011;40452;50.080;20.040;2022-11-15T06:18:05;12.98;;;8.07;;
54557;SDS011;40452;50.080;20.040;2022-11-15T06:20:31;14.93;;;8.57;;
54557;SDS011;40452;50.080;20.040;2022-11-15T06:22:57;17.73;;;9.60;;
54557;SDS011;40452;50.080;20.040;2022-11-15T06:25:23;15.82;;;9.35;;
54557;SDS011;40452;50.080;20.040;2022-11-15T06:27:52;15.48;;;9.57;;
54557;SDS011;40452;50.080;20.040;2022-11-15T06:30:23;19.38;;;10.13;;
54557;SDS011;40452;50.080;20.040;2022-11-15T06:32:49;18.20;;;10.50;;
54557;SDS011;40452;50.080;20.040;2022-11-15T06:35:15;18.13;;;10.43;;
54557;SDS011;40452;50.080;20.040;2022-11-15T06:37:41;20.95;;;10.90;;
54557;SDS011;40452;50.080;20.040;2022-11-15T06:40:07;20.58;;;10.63;;
54557;SDS011;40452;50.080;20.040;2022-11-15T06:42:34;19.38;;;11.13;;
54557;SDS011;40452;50.080;20.040;2022-11-15T06:44:59;21.80;;;12.13;;
54557;SDS011;40452;50.080;20.040;2022-11-15T06:47:25;21.30;;;12.10;;
54557;SDS011;40452;50.080;20.040;2022-11-15T06:49:51;20.52;;;11.95;;
54557;SDS011;40452;50.080;20.040;2022-11-15T06:52:16;20.77;;;11.68;;
54557;SDS011;40452;50.080;20.040;2022-11-15T06:54:44;26.98;;;14.13;;
54557;SDS011;40452;50.080;20.040;2022-11-15T06:57:09;27.48;;;14.25;;
54557;SDS011;40452;50.080;20.040;2022-11-15T06:59:35;30.10;;;14.05;;
54557;SDS011;40452;50.080;20.040;2022-11-15T07:02:01;29.08;;;15.45;;
54557;SDS011;40452;50.080;20.040;2022-11-15T07:04:27;26.67;;;13.68;;
54557;SDS011;40452;50.080;20.040;2022-11-15T07:06:52;29.75;;;15.20;;
54557;SDS011;40452;50.080;20.040;2022-11-15T07:09:17;34.10;;;14.40;;
54557;SDS011;40452;50.080;20.040;2022-11-15T07:11:43;32.47;;;15.82;;
54557;SDS011;40452;50.080;20.040;2022-11-15T07:14:09;28.70;;;15.45;;
54557;SDS011;40452;50.080;20.040;2022-11-15T07:16:35;34.15;;;15.57;;
54557;SDS011;40452;50.080;20.040;2022-11-15T07:19:01;26.95;;;15.15;;
54557;SDS011;40452;50.080;20.040;2022-11-15T07:21:27;29.23;;;14.85;;
54557;SDS011;40452;50.080;20.040;2022-11-15T07:23:52;31.20;;;16.05;;
54557;SDS011;40452;50.080;20.040;2022-11-15T07:26:18;30.77;;;15.45;;
54557;SDS011;40452;50.080;20.040;2022-11-15T07:28:43;33.92;;;15.40;;
54557;SDS011;40452;50.080;20.040;2022-11-15T07:31:09;32.65;;;16.60;;
54557;SDS011;40452;50.080;20.040;2022-11-15T07:33:34;32.03;;;15.50;;
54557;SDS011;40452;50.080;20.040;2022-11-15T07:36:04;30.98;;;15.45;;
54557;SDS011;40452;50.080;20.040;2022-11-15T07:38:31;33.65;;;15.55;;
54557;SDS011;40452;50.080;20.040;2022-11-15T07:40:58;29.05;;;14.10;;
54557;SDS011;40452;50.080;20.040;2022-11-15T07:43:26;30.67;;;15.02;;
54557;SDS011;40452;50.080;20.040;2022-11-15T07:45:55;27.52;;;14.23;;
54557;SDS011;40452;50.080;20.040;2022-11-15T07:48:21;28.33;;;14.75;;
54557;SDS011;40452;50.080;20.040;2022-11-15T07:50:46;26.25;;;13.70;;
54557;SDS011;40452;50.080;20.040;2022-11-15T07:53:12;31.05;;;15.30;;
54557;SDS011;40452;50.080;20.040;2022-11-15T07:55:39;27.00;;;14.43;;
54557;SDS011;40452;50.080;20.040;2022-11-15T07:58:06;27.35;;;14.35;;
54557;SDS011;40452;50.080;20.040;2022-11-15T08:00:33;27.35;;;14.15;;
54557;SDS011;40452;50.080;20.040;2022-11-15T08:03:06;26.92;;;13.73;;
54557;SDS011;40452;50.080;20.040;2022-11-15T08:05:33;24.77;;;13.50;;
54557;SDS011;40452;50.080;20.040;2022-11-15T08:07:59;25.42;;;13.38;;
54557;SDS011;40452;50.080;20.040;2022-11-15T08:10:26;24.77;;;12.95;;
54557;SDS011;40452;50.080;20.040;2022-11-15T08:13:01;26.25;;;13.48;;
54557;SDS011;40452;50.080;20.040;2022-11-15T08:15:28;24.13;;;13.38;;
54557;SDS011;40452;50.080;20.040;2022-11-15T08:17:55;28.95;;;13.43;;
54557;SDS011;40452;50.080;20.040;2022-11-15T17:35:39;18.13;;;11.80;;
54557;SDS011;40452;50.080;20.040;2022-11-15T17:38:07;19.92;;;12.15;;
54557;SDS011;40452;50.080;20.040;2022-11-15T17:40:33;21.92;;;12.10;;
54557;SDS011;40452;50.080;20.040;2022-11-15T17:42:59;25.55;;;12.68;;
54557;SDS011;40452;50.080;20.040;2022-11-15T17:45:40;21.23;;;13.02;;
54557;SDS011;40452;50.080;20.040;2022-11-15T17:48:06;20.63;;;12.70;;
54557;SDS011;40452;50.080;20.040;2022-11-15T17:50:31;21.40;;;13.38;;
54557;SDS011;40452;50.080;20.040;2022-11-15T17:52:58;20.30;;;12.98;;
54557;SDS011;40452;50.080;20.040;2022-11-15T17:55:24;24.00;;;13.50;;
54557;SDS011;40452;50.080;20.040;2022-11-15T17:57:49;25.80;;;12.82;;
54557;SDS011;40452;50.080;20.040;2022-11-15T18:00:15;24.27;;;12.90;;
54557;SDS011;40452;50.080;20.040;2022-11-15T18:02:44;20.92;;;13.40;;
54557;SDS011;40452;50.080;20.040;2022-11-15T18:05:10;22.40;;;13.25;;
54557;SDS011;40452;50.080;20.040;2022-11-15T18:07:35;30.10;;;13.27;;
54557;SDS011;40452;50.080;20.040;2022-11-15T18:10:01;31.67;;;14.18;;
54557;SDS011;40452;50.080;20.040;2022-11-15T18:12:27;22.05;;;13.75;;
54557;SDS011;40452;50.080;20.040;2022-11-15T18:14:52;17.25;;;12.20;;
54557;SDS011;40452;50.080;20.040;2022-11-15T18:17:18;21.40;;;12.80;;
54557;SDS011;40452;50.080;20.040;2022-11-15T18:19:43;27.20;;;13.40;;
54557;SDS011;40452;50.080;20.040;2022-11-15T18:22:09;20.00;;;13.18;;
54557;SDS011;40452;50.080;20.040;2022-11-15T18:24:35;25.20;;;13.75;;
54557;SDS011;40452;50.080;20.040;2022-11-15T18:27:03;24.33;;;13.73;;
54557;SDS011;40452;50.080;20.040;2022-11-15T18:29:29;21.65;;;12.85;;
54557;SDS011;40452;50.080;20.040;2022-11-15T18:31:55;21.25;;;13.57;;
54557;SDS011;40452;50.080;20.040;2022-11-15T18:34:24;20.48;;;12.75;;
54557;SDS011;40452;50.080;20.040;2022-11-15T18:36:55;24.17;;;13.10;;
54557;SDS011;40452;50.080;20.040;2022-11-15T18:39:21;22.00;;;13.50;;
54557;SDS011;40452;50.080;20.040;2022-11-15T18:41:46;23.00;;;14.07;;
54557;SDS011;40452;50.080;20.040;2022-11-15T18:44:13;26.85;;;14.05;;
54557;SDS011;40452;50.080;20.040;2022-11-15T18:46:39;22.90;;;13.38;;
54557;SDS011;40452;50.080;20.040;2022-11-15T18:49:05;19.35;;;13.00;;
54557;SDS011;40452;50.080;20.040;2022-11-15T18:51:34;26.15;;;14.45;;
54557;SDS011;40452;50.080;20.040;2022-11-15T18:54:01;25.77;;;13.48;;
54557;SDS011;40452;50.080;20.040;2022-11-15T18:56:28;21.42;;;13.48;;
54557;SDS011;40452;50.080;20.040;2022-11-15T18:58:57;25.85;;;13.35;;
54557;SDS011;40452;50.080;20.040;2022-11-15T19:01:24;24.00;;;13.27;;
54557;SDS011;40452;50.080;20.040;2022-11-15T19:03:53;30.45;;;14.77;;
54557;SDS011;40452;50.080;20.040;2022-11-15T19:06:20;27.23;;;15.23;;
54557;SDS011;40452;50.080;20.040;2022-11-15T19:08:48;36.72;;;20.95;;
54557;SDS011;40452;50.080;20.040;2022-11-15T19:11:16;37.75;;;21.40;;
54557;SDS011;40452;50.080;20.040;2022-11-15T19:13:43;32.38;;;20.65;;
54557;SDS011;40452;50.080;20.040;2022-11-15T19:16:11;33.58;;;20.63;;
54557;SDS011;40452;50.080;20.040;2022-11-15T19:18:38;36.20;;;20.10;;
54557;SDS011;40452;50.080;20.040;2022-11-15T19:21:06;31.70;;;19.70;;
54557;SDS011;40452;50.080;20.040;2022-11-15T19:23:33;34.75;;;21.10;;
54557;SDS011;40452;50.080;20.040;2022-11-15T19:26:00;32.58;;;20.90;;
54557;SDS011;40452;50.080;20.040;2022-11-15T19:28:28;33.67;;;19.95;;
54557;SDS011;40452;50.080;20.040;2022-11-15T19:31:01;28.13;;;18.05;;
54557;SDS011;40452;50.080;20.040;2022-11-15T19:33:40;31.50;;;16.50;;
54557;SDS011;40452;50.080;20.040;2022-11-15T19:36:14;26.13;;;16.02;;
54557;SDS011;40452;50.080;20.040;2022-11-15T19:38:41;24.38;;;16.25;;
54557;SDS011;40452;50.080;20.040;2022-11-15T19:41:09;27.98;;;15.35;;
54557;SDS011;40452;50.080;20.040;2022-11-15T19:43:36;27.35;;;15.77;;
54557;SDS011;40452;50.080;20.040;2022-11-15T19:46:02;31.35;;;15.55;;
54557;SDS011;40452;50.080;20.040;2022-11-15T19:48:30;26.17;;;15.10;;
54557;SDS011;40452;50.080;20.040;2022-11-15T19:51:00;30.08;;;15.00;;
54557;SDS011;40452;50.080;20.040;2022-11-15T19:53:27;27.20;;;15.37;;
54557;SDS011;40452;50.080;20.040;2022-11-15T19:55:53;25.92;;;14.48;;
54557;SDS011;40452;50.080;20.040;2022-11-15T19:58:23;25.52;;;14.93;;
54557;SDS011;40452;50.080;20.040;2022-11-15T20:00:49;27.00;;;14.48;;
54557;SDS011;40452;50.080;20.040;2022-11-15T20:03:15;25.02;;;14.70;;
54557;SDS011;40452;50.080;20.040;2022-11-15T20:05:40;25.50;;;15.15;;
54557;SDS011;40452;50.080;20.040;2022-11-15T20:08:06;26.73;;;14.13;;
54557;SDS011;40452;50.080;20.040;2022-11-15T20:10:34;24.65;;;14.98;;
54557;SDS011;40452;50.080;20.040;2022-11-15T20:13:00;22.25;;;13.88;;
54557;SDS011;40452;50.080;20.040;2022-11-15T20:15:25;30.48;;;13.60;;
54557;SDS011;40452;50.080;20.040;2022-11-15T20:17:51;23.83;;;13.80;;
54557;SDS011;40452;50.080;20.040;2022-11-15T20:20:17;25.63;;;13.98;;
54557;SDS011;40452;50.080;20.040;2022-11-15T20:22:42;25.55;;;13.90;;
54557;SDS011;40452;50.080;20.040;2022-11-15T20:25:08;21.83;;;13.63;;
54557;SDS011;40452;50.080;20.040;2022-11-15T20:27:34;24.83;;;14.20;;
54557;SDS011;40452;50.080;20.040;2022-11-15T20:29:59;25.58;;;13.60;;
54557;SDS011;40452;50.080;20.040;2022-11-15T20:32:25;21.92;;;13.88;;
54557;SDS011;40452;50.080;20.040;2022-11-15T20:34:51;25.15;;;14.70;;
54557;SDS011;40452;50.080;20.040;2022-11-15T20:37:17;28.23;;;14.77;;
54557;SDS011;40452;50.080;20.040;2022-11-15T20:39:43;32.55;;;14.25;;
54557;SDS011;40452;50.080;20.040;2022-11-15T20:42:09;23.50;;;14.27;;
54557;SDS011;40452;50.080;20.040;2022-11-15T20:44:35;21.92;;;13.43;;
54557;SDS011;40452;50.080;20.040;2022-11-15T20:47:00;25.10;;;14.60;;
54557;SDS011;40452;50.080;20.040;2022-11-15T20:49:26;26.42;;;14.05;;
54557;SDS011;40452;50.080;20.040;2022-11-15T20:51:52;21.77;;;13.10;;
54557;SDS011;40452;50.080;20.040;2022-11-15T20:54:18;24.13;;;13.52;;
54557;SDS011;40452;50.080;20.040;2022-11-15T20:56:44;21.23;;;13.55;;
54557;SDS011;40452;50.080;20.040;2022-11-15T20:59:09;20.45;;;12.93;;
54557;SDS011;40452;50.080;20.040;2022-11-15T21:01:35;26.38;;;13.48;;
54557;SDS011;40452;50.080;20.040;2022-11-15T21:04:01;23.27;;;13.82;;
54557;SDS011;40452;50.080;20.040;2022-11-15T21:06:27;23.70;;;13.80;;
54557;SDS011;40452;50.080;20.040;2022-11-15T21:08:52;24.20;;;13.32;;
54557;SDS011;40452;50.080;20.040;2022-11-15T21:11:37;23.42;;;13.57;;
54557;SDS011;40452;50.080;20.040;2022-11-15T21:14:21;22.85;;;12.80;;
54557;SDS011;40452;50.080;20.040;2022-11-15T21:16:47;24.17;;;13.35;;
54557;SDS011;40452;50.080;20.040;2022-11-15T21:19:12;22.63;;;13.38;;
54557;SDS011;40452;50.080;20.040;2022-11-15T21:21:38;22.20;;;13.50;;
54557;SDS011;40452;50.080;20.040;2022-11-15T21:24:07;20.92;;;13.48;;
54557;SDS011;40452;50.080;20.040;2022-11-15T21:26:34;20.60;;;13.63;;
54557;SDS011;40452;50.080;20.040;2022-11-15T21:28:59;22.83;;;14.10;;
54557;SDS011;40452;50.080;20.040;2022-11-15T21:31:25;20.73;;;13.88;;
54557;SDS011;40452;50.080;20.040;2022-11-15T21:33:51;24.15;;;13.80;;
54557;SDS011;40452;50.080;20.040;2022-11-15T21:36:17;26.73;;;13.23;;
54557;SDS011;40452;50.080;20.040;2022-11-15T21:38:42;20.92;;;13.18;;
54557;SDS011;40452;50.080;20.040;2022-11-15T21:41:08;23.30;;;13.73;;
54557;SDS011;40452;50.080;20.040;2022-11-15T21:43:33;18.15;;;13.38;;
54557;SDS011;40452;50.080;20.040;2022-11-15T21:46:02;21.48;;;13.68;;
54557;SDS011;40452;50.080;20.040;2022-11-15T21:48:30;24.65;;;14.23;;
54557;SDS011;40452;50.080;20.040;2022-11-15T21:51:00;20.67;;;13.02;;
54557;SDS011;40452;50.080;20.040;2022-11-15T21:55:53;21.38;;;12.90;;
54557;SDS011;40452;50.080;20.040;2022-11-15T21:58:19;23.42;;;13.27;;
54557;SDS011;40452;50.080;20.040;2022-11-15T22:00:45;20.40;;;13.15;;
54557;SDS011;40452;50.080;20.040;2022-11-15T22:03:30;21.73;;;13.48;;
54557;SDS011;40452;50.080;20.040;2022-11-15T22:05:55;24.48;;;13.52;;
54557;SDS011;40452;50.080;20.040;2022-11-15T22:08:21;24.17;;;13.23;;
54557;SDS011;40452;50.080;20.040;2022-11-15T22:10:47;20.48;;;13.00;;
54557;SDS011;40452;50.080;20.040;2022-11-15T22:13:14;22.30;;;13.07;;
54557;SDS011;40452;50.080;20.040;2022-11-15T22:15:40;21.65;;;12.45;;
54557;SDS011;40452;50.080;20.040;2022-11-15T22:18:08;22.05;;;13.07;;
54557;SDS011;40452;50.080;20.040;2022-11-15T22:20:34;19.13;;;13.00;;
54557;SDS011;40452;50.080;20.040;2022-11-15T22:23:00;22.77;;;12.38;;
54557;SDS011;40452;50.080;20.040;2022-11-15T22:25:26;22.50;;;12.63;;
54557;SDS011;40452;50.080;20.040;2022-11-15T22:27:53;25.08;;;13.38;;
54557;SDS011;40452;50.080;20.040;2022-11-15T22:30:19;22.52;;;12.75;;
54557;SDS011;40452;50.080;20.040;2022-11-15T22:32:45;18.48;;;12.88;;
54557;SDS011;40452;50.080;20.040;2022-11-15T22:35:11;20.83;;;12.85;;
